Time,TemperatureF,DewpointF,PressureIn,WindDirection,WindDirectionDegrees,WindSpeedMPH,WindSpeedGustMPH,Humidity,HourlyPrecipIn,Conditions,Clouds,dailyrainin,SoftwareType,DateUTC
2013-06-28 00:00:00,74.3,70.5,29.62,North,-999,-999.0,0.0,88,0.00,,---,0.00,VWS V14.01,2013-06-28 04:00:00,
2013-06-28 00:01:00,74.3,70.5,29.62,North,-999,-999.0,0.0,88,0.00,,---,0.00,VWS V14.01,2013-06-28 04:01:00,
2013-06-28 00:03:00,74.2,70.4,29.62,North,-999,-999.0,0.0,88,0.00,,---,0.00,VWS V14.01,2013-06-28 04:03:00,
2013-06-28 00:05:00,74.2,70.4,29.62,North,-999,-999.0,0.0,88,0.00,,---,0.00,VWS V14.01,2013-06-28 04:05:00,
2013-06-28 00:06:00,74.2,70.4,29.62,North,-999,-999.0,0.0,88,0.00,,---,0.00,VWS V14.01,2013-06-28 04:06:00,
2013-06-28 00:11:00,73.8,70.4,29.62,North,-999,-999.0,0.0,89,0.00,,---,0.00,VWS V14.01,2013-06-28 04:11:00,
2013-06-28 00:13:00,73.8,70.4,29.62,North,-999,-999.0,0.0,89,0.00,,---,0.00,VWS V14.01,2013-06-28 04:13:00,
2013-06-28 00:18:00,73.8,70.4,29.62,North,-999,-999.0,0.0,89,0.00,,---,0.00,VWS V14.01,2013-06-28 04:18:00,
2013-06-28 00:23:00,73.6,70.2,29.62,North,-999,-999.0,0.0,89,0.00,,---,0.00,VWS V14.01,2013-06-28 04:23:00,
2013-06-28 00:28:00,73.6,70.2,29.62,North,-999,-999.0,0.0,89,0.00,,---,0.00,VWS V14.01,2013-06-28 04:28:00,
2013-06-28 00:33:00,73.6,70.2,29.62,North,-999,-999.0,0.0,89,0.00,,---,0.00,VWS V14.01,2013-06-28 04:33:00,
2013-06-28 00:38:00,73.6,70.2,29.62,North,-999,-999.0,0.0,89,0.00,,---,0.00,VWS V14.01,2013-06-28 04:38:00,
2013-06-28 00:43:00,73.6,70.2,29.61,North,-999,-999.0,0.0,89,0.00,,---,0.00,VWS V14.01,2013-06-28 04:43:00,
2013-06-28 00:48:00,73.4,70.0,29.61,North,-999,-999.0,0.0,89,0.00,,---,0.00,VWS V14.01,2013-06-28 04:48:00,
2013-06-28 00:53:00,73.4,70.0,29.62,North,-999,-999.0,0.0,89,0.00,,---,0.00,VWS V14.01,2013-06-28 04:53:00,
2013-06-28 00:58:00,73.4,70.0,29.62,North,-999,-999.0,0.0,89,0.00,,---,0.00,VWS V14.01,2013-06-28 04:58:00,
2013-06-28 01:04:00,73.4,70.0,29.61,North,-999,-999.0,0.0,89,0.00,,---,0.00,VWS V14.01,2013-06-28 05:04:00,
2013-06-28 01:09:00,73.4,70.0,29.61,North,-999,-999.0,0.0,89,0.00,,---,0.00,VWS V14.01,2013-06-28 05:09:00,
2013-06-28 01:14:00,73.3,69.9,29.61,North,-999,-999.0,0.0,89,0.00,,---,0.00,VWS V14.01,2013-06-28 05:14:00,
2013-06-28 01:19:00,73.3,69.9,29.61,North,-999,-999.0,0.0,89,0.00,,---,0.00,VWS V14.01,2013-06-28 05:19:00,
2013-06-28 01:24:00,73.3,69.9,29.61,North,-999,-999.0,0.0,89,0.00,,---,0.00,VWS V14.01,2013-06-28 05:24:00,
2013-06-28 01:29:00,73.3,69.9,29.60,North,-999,-999.0,0.0,89,0.00,,---,0.00,VWS V14.01,2013-06-28 05:29:00,
2013-06-28 01:34:00,73.3,69.9,29.60,North,-999,-999.0,0.0,89,0.00,,---,0.00,VWS V14.01,2013-06-28 05:34:00,
2013-06-28 01:39:00,73.3,69.9,29.60,North,-999,-999.0,0.0,89,0.00,,---,0.00,VWS V14.01,2013-06-28 05:39:00,
2013-06-28 01:44:00,73.4,70.0,29.60,North,-999,-999.0,0.0,89,0.00,,---,0.00,VWS V14.01,2013-06-28 05:44:00,
2013-06-28 01:49:00,73.3,70.2,29.60,North,-999,-999.0,0.0,90,0.00,,---,0.00,VWS V14.01,2013-06-28 05:49:00,
2013-06-28 01:54:00,73.3,70.2,29.60,North,-999,-999.0,0.0,90,0.00,,---,0.00,VWS V14.01,2013-06-28 05:54:00,
2013-06-28 01:59:00,73.1,69.7,29.60,North,-999,-999.0,0.0,89,0.00,,---,0.00,VWS V14.01,2013-06-28 05:59:00,
2013-06-28 02:05:00,73.1,69.7,29.60,North,-999,-999.0,0.0,89,0.00,,---,0.00,VWS V14.01,2013-06-28 06:05:00,
2013-06-28 02:10:00,73.3,70.2,29.60,North,-999,-999.0,0.0,90,0.00,,---,0.00,VWS V14.01,2013-06-28 06:10:00,
2013-06-28 02:15:00,73.3,70.2,29.60,North,-999,-999.0,0.0,90,0.00,,---,0.00,VWS V14.01,2013-06-28 06:15:00,
2013-06-28 02:20:00,73.3,70.2,29.60,North,-999,-999.0,0.0,90,0.00,,---,0.00,VWS V14.01,2013-06-28 06:20:00,
2013-06-28 02:25:00,73.3,70.2,29.60,North,-999,-999.0,0.0,90,0.00,,---,0.00,VWS V14.01,2013-06-28 06:25:00,
2013-06-28 02:30:00,73.3,70.2,29.60,North,-999,-999.0,0.0,90,0.00,,---,0.00,VWS V14.01,2013-06-28 06:30:00,
2013-06-28 02:35:00,73.1,69.7,29.60,North,-999,-999.0,0.0,89,0.00,,---,0.00,VWS V14.01,2013-06-28 06:35:00,
2013-06-28 02:40:00,73.1,69.7,29.60,North,-999,-999.0,0.0,89,0.00,,---,0.00,VWS V14.01,2013-06-28 06:40:00,
2013-06-28 02:45:00,73.1,69.7,29.60,North,-999,-999.0,0.0,89,0.00,,---,0.00,VWS V14.01,2013-06-28 06:45:00,
2013-06-28 02:50:00,72.9,69.5,29.60,North,-999,-999.0,0.0,89,0.00,,---,0.00,VWS V14.01,2013-06-28 06:50:00,
2013-06-28 02:55:00,72.9,69.5,29.59,North,-999,-999.0,0.0,89,0.00,,---,0.00,VWS V14.01,2013-06-28 06:55:00,
2013-06-28 03:01:00,72.7,69.3,29.59,North,-999,-999.0,0.0,89,0.00,,---,0.00,VWS V14.01,2013-06-28 07:01:00,
2013-06-28 03:06:00,72.7,69.3,29.59,North,-999,-999.0,0.0,89,0.00,,---,0.00,VWS V14.01,2013-06-28 07:06:00,
2013-06-28 03:11:00,72.5,69.4,29.59,North,-999,-999.0,0.0,90,0.00,,---,0.00,VWS V14.01,2013-06-28 07:11:00,
2013-06-28 03:16:00,72.4,69.3,29.59,North,-999,-999.0,0.0,90,0.00,,---,0.00,VWS V14.01,2013-06-28 07:16:00,
2013-06-28 03:21:00,72.4,69.3,29.59,North,-999,-999.0,0.0,90,0.00,,---,0.00,VWS V14.01,2013-06-28 07:21:00,
2013-06-28 03:26:00,72.4,69.3,29.59,North,-999,-999.0,0.0,90,0.00,,---,0.00,VWS V14.01,2013-06-28 07:26:00,
2013-06-28 03:31:00,72.4,69.3,29.59,North,-999,-999.0,0.0,90,0.00,,---,0.00,VWS V14.01,2013-06-28 07:31:00,
2013-06-28 03:36:00,72.4,69.3,29.59,North,-999,-999.0,0.0,90,0.00,,---,0.00,VWS V14.01,2013-06-28 07:36:00,
2013-06-28 03:41:00,72.4,69.3,29.59,North,-999,-999.0,0.0,90,0.00,,---,0.00,VWS V14.01,2013-06-28 07:41:00,
2013-06-28 03:46:00,72.4,69.3,29.59,North,-999,-999.0,0.0,90,0.00,,---,0.00,VWS V14.01,2013-06-28 07:46:00,
2013-06-28 03:51:00,72.2,69.1,29.59,North,-999,-999.0,0.0,90,0.00,,---,0.00,VWS V14.01,2013-06-28 07:51:00,
2013-06-28 03:56:00,72.0,68.9,29.59,North,-999,-999.0,0.0,90,0.00,,---,0.00,VWS V14.01,2013-06-28 07:56:00,
2013-06-28 04:01:00,72.0,68.9,29.59,North,-999,-999.0,0.0,90,0.00,,---,0.00,VWS V14.01,2013-06-28 08:01:00,
2013-06-28 04:07:00,71.6,68.5,29.59,North,-999,-999.0,0.0,90,0.00,,---,0.00,VWS V14.01,2013-06-28 08:07:00,
2013-06-28 04:12:00,71.6,68.5,29.59,North,-999,-999.0,0.0,90,0.00,,---,0.00,VWS V14.01,2013-06-28 08:12:00,
2013-06-28 04:17:00,71.5,68.4,29.59,North,-999,-999.0,0.0,90,0.01,,---,0.01,VWS V14.01,2013-06-28 08:17:00,
2013-06-28 04:22:00,71.5,68.4,29.58,North,-999,-999.0,0.0,90,0.01,,---,0.01,VWS V14.01,2013-06-28 08:22:00,
2013-06-28 04:27:00,71.5,68.4,29.58,North,-999,-999.0,0.0,90,0.01,,---,0.01,VWS V14.01,2013-06-28 08:27:00,
2013-06-28 04:32:00,71.3,68.2,29.58,North,-999,-999.0,0.0,90,0.01,,---,0.01,VWS V14.01,2013-06-28 08:32:00,
2013-06-28 04:37:00,71.3,68.2,29.58,North,-999,-999.0,0.0,90,0.01,,---,0.01,VWS V14.01,2013-06-28 08:37:00,
2013-06-28 04:42:00,71.1,68.0,29.58,North,-999,-999.0,0.0,90,0.01,,---,0.01,VWS V14.01,2013-06-28 08:42:00,
2013-06-28 04:47:00,70.9,67.8,29.58,North,-999,-999.0,0.0,90,0.01,,---,0.01,VWS V14.01,2013-06-28 08:47:00,
2013-06-28 04:52:00,70.9,68.2,29.58,North,-999,-999.0,0.0,91,0.01,,---,0.01,VWS V14.01,2013-06-28 08:52:00,
2013-06-28 04:57:00,70.9,68.2,29.57,North,-999,-999.0,0.0,91,0.01,,---,0.01,VWS V14.01,2013-06-28 08:57:00,
2013-06-28 05:03:00,70.9,68.2,29.58,North,-999,-999.0,0.0,91,0.01,,---,0.01,VWS V14.01,2013-06-28 09:03:00,
2013-06-28 05:08:00,70.9,68.2,29.58,North,-999,-999.0,0.0,91,0.01,,---,0.01,VWS V14.01,2013-06-28 09:08:00,
2013-06-28 05:13:00,70.7,67.9,29.57,North,-999,-999.0,0.0,91,0.01,,---,0.01,VWS V14.01,2013-06-28 09:13:00,
2013-06-28 05:18:00,70.6,67.8,29.57,North,-999,-999.0,0.0,91,0.00,,---,0.01,VWS V14.01,2013-06-28 09:18:00,
2013-06-28 05:23:00,70.4,67.7,29.57,North,-999,-999.0,0.0,91,0.00,,---,0.01,VWS V14.01,2013-06-28 09:23:00,
2013-06-28 05:28:00,70.2,67.4,29.57,North,-999,-999.0,0.0,91,0.00,,---,0.01,VWS V14.01,2013-06-28 09:28:00,
2013-06-28 05:33:00,70.2,67.4,29.57,North,-999,-999.0,0.0,91,0.00,,---,0.01,VWS V14.01,2013-06-28 09:33:00,
2013-06-28 05:38:00,70.0,67.3,29.58,North,-999,-999.0,0.0,91,0.00,,---,0.01,VWS V14.01,2013-06-28 09:38:00,
2013-06-28 05:43:00,70.0,67.3,29.58,North,-999,-999.0,0.0,91,0.00,,---,0.01,VWS V14.01,2013-06-28 09:43:00,
2013-06-28 05:48:00,70.0,67.3,29.58,North,-999,-999.0,0.0,91,0.00,,---,0.01,VWS V14.01,2013-06-28 09:48:00,
2013-06-28 05:53:00,69.8,67.1,29.58,North,-999,-999.0,0.0,91,0.00,,---,0.01,VWS V14.01,2013-06-28 09:53:00,
2013-06-28 05:58:00,69.7,67.0,29.59,North,-999,-999.0,0.0,91,0.00,,---,0.01,VWS V14.01,2013-06-28 09:58:00,
2013-06-28 06:04:00,69.5,66.8,29.59,North,-999,-999.0,0.0,91,0.00,,---,0.01,VWS V14.01,2013-06-28 10:04:00,
2013-06-28 06:09:00,69.5,66.8,29.59,North,-999,-999.0,0.0,91,0.00,,---,0.01,VWS V14.01,2013-06-28 10:09:00,
2013-06-28 06:14:00,69.5,66.8,29.59,North,-999,-999.0,0.0,91,0.00,,---,0.01,VWS V14.01,2013-06-28 10:14:00,
2013-06-28 06:19:00,69.5,66.8,29.59,North,-999,-999.0,0.0,91,0.00,,---,0.01,VWS V14.01,2013-06-28 10:19:00,
2013-06-28 06:24:00,69.3,66.6,29.59,North,-999,-999.0,0.0,91,0.00,,---,0.01,VWS V14.01,2013-06-28 10:24:00,
2013-06-28 06:29:00,69.3,66.6,29.60,North,-999,-999.0,0.0,91,0.00,,---,0.01,VWS V14.01,2013-06-28 10:29:00,
2013-06-28 06:34:00,69.3,66.6,29.60,North,-999,-999.0,0.0,91,0.00,,---,0.01,VWS V14.01,2013-06-28 10:34:00,
2013-06-28 06:39:00,69.1,66.4,29.60,North,-999,-999.0,0.0,91,0.00,,---,0.01,VWS V14.01,2013-06-28 10:39:00,
2013-06-28 06:44:00,69.1,66.4,29.60,North,-999,-999.0,0.0,91,0.00,,---,0.01,VWS V14.01,2013-06-28 10:44:00,
2013-06-28 06:49:00,69.1,66.4,29.60,North,-999,-999.0,0.0,91,0.00,,---,0.01,VWS V14.01,2013-06-28 10:49:00,
2013-06-28 06:54:00,69.3,66.6,29.60,North,-999,-999.0,0.0,91,0.00,,---,0.01,VWS V14.01,2013-06-28 10:54:00,
2013-06-28 06:59:00,69.3,66.6,29.59,North,-999,-999.0,0.0,91,0.00,,---,0.01,VWS V14.01,2013-06-28 10:59:00,
2013-06-28 07:05:00,69.5,66.8,29.59,North,-999,-999.0,0.0,91,0.00,,---,0.01,VWS V14.01,2013-06-28 11:05:00,
2013-06-28 07:10:00,69.5,66.8,29.59,North,-999,-999.0,0.0,91,0.00,,---,0.01,VWS V14.01,2013-06-28 11:10:00,
2013-06-28 07:15:00,69.5,66.8,29.59,North,-999,-999.0,0.0,91,0.00,,---,0.01,VWS V14.01,2013-06-28 11:15:00,
2013-06-28 07:20:00,69.7,67.0,29.59,North,-999,-999.0,0.0,91,0.00,,---,0.01,VWS V14.01,2013-06-28 11:20:00,
2013-06-28 07:25:00,69.8,67.1,29.59,North,-999,-999.0,0.0,91,0.00,,---,0.01,VWS V14.01,2013-06-28 11:25:00,
2013-06-28 07:30:00,70.2,67.4,29.59,North,-999,-999.0,0.0,91,0.00,,---,0.01,VWS V14.01,2013-06-28 11:30:00,
2013-06-28 07:35:00,70.4,67.7,29.59,North,-999,-999.0,0.0,91,0.00,,---,0.01,VWS V14.01,2013-06-28 11:35:00,
2013-06-28 07:40:00,70.7,67.9,29.59,North,-999,-999.0,0.0,91,0.00,,---,0.01,VWS V14.01,2013-06-28 11:40:00,
2013-06-28 07:45:00,70.9,68.5,29.59,North,-999,-999.0,0.0,92,0.00,,---,0.01,VWS V14.01,2013-06-28 11:45:00,
2013-06-28 07:50:00,71.1,68.3,29.59,North,-999,-999.0,0.0,91,0.00,,---,0.01,VWS V14.01,2013-06-28 11:50:00,
2013-06-28 07:55:00,71.5,68.7,29.59,North,-999,-999.0,0.0,91,0.00,,---,0.01,VWS V14.01,2013-06-28 11:55:00,
2013-06-28 08:01:00,71.6,68.8,29.59,North,-999,-999.0,0.0,91,0.00,,---,0.01,VWS V14.01,2013-06-28 12:01:00,
2013-06-28 08:06:00,72.0,69.2,29.59,North,-999,-999.0,0.0,91,0.00,,---,0.01,VWS V14.01,2013-06-28 12:06:00,
2013-06-28 08:11:00,72.2,69.4,29.59,North,-999,-999.0,0.0,91,0.00,,---,0.01,VWS V14.01,2013-06-28 12:11:00,
2013-06-28 08:16:00,72.4,69.6,29.59,North,-999,-999.0,0.0,91,0.00,,---,0.01,VWS V14.01,2013-06-28 12:16:00,
2013-06-28 08:21:00,72.7,69.9,29.59,North,-999,-999.0,0.0,91,0.00,,---,0.01,VWS V14.01,2013-06-28 12:21:00,
2013-06-28 08:26:00,72.9,70.1,29.59,North,-999,-999.0,0.0,91,0.00,,---,0.01,VWS V14.01,2013-06-28 12:26:00,
2013-06-28 08:31:00,73.3,70.8,29.59,North,-999,-999.0,0.0,92,0.00,,---,0.01,VWS V14.01,2013-06-28 12:31:00,
2013-06-28 08:36:00,73.6,71.1,29.59,North,-999,-999.0,0.0,92,0.00,,---,0.01,VWS V14.01,2013-06-28 12:36:00,
2013-06-28 08:41:00,73.8,71.0,29.59,North,-999,-999.0,0.0,91,0.00,,---,0.01,VWS V14.01,2013-06-28 12:41:00,
2013-06-28 08:46:00,74.0,71.2,29.59,North,-999,-999.0,0.0,91,0.00,,---,0.01,VWS V14.01,2013-06-28 12:46:00,
2013-06-28 08:51:00,74.5,71.4,29.59,North,-999,-999.0,0.0,90,0.00,,---,0.01,VWS V14.01,2013-06-28 12:51:00,
2013-06-28 08:56:00,74.9,71.4,29.59,North,-999,-999.0,0.0,89,0.00,,---,0.01,VWS V14.01,2013-06-28 12:56:00,
2013-06-28 09:02:00,75.4,71.9,29.59,North,-999,-999.0,0.0,89,0.00,,---,0.01,VWS V14.01,2013-06-28 13:02:00,
2013-06-28 09:07:00,75.8,72.3,29.59,North,-999,-999.0,0.0,89,0.00,,---,0.01,VWS V14.01,2013-06-28 13:07:00,
2013-06-28 09:12:00,76.3,72.5,29.59,North,-999,-999.0,0.0,88,0.00,,---,0.01,VWS V14.01,2013-06-28 13:12:00,
2013-06-28 09:17:00,76.9,72.7,29.59,North,-999,-999.0,0.0,87,0.00,,---,0.01,VWS V14.01,2013-06-28 13:17:00,
2013-06-28 09:22:00,77.4,72.5,29.59,North,-999,-999.0,0.0,85,0.00,,---,0.01,VWS V14.01,2013-06-28 13:22:00,
2013-06-28 09:27:00,78.1,72.9,29.59,North,-999,-999.0,0.0,84,0.00,,---,0.01,VWS V14.01,2013-06-28 13:27:00,
2013-06-28 09:32:00,78.5,72.9,29.59,North,-999,-999.0,0.0,83,0.00,,---,0.01,VWS V14.01,2013-06-28 13:32:00,
2013-06-28 09:37:00,79.0,73.4,29.59,North,-999,-999.0,0.0,83,0.00,,---,0.01,VWS V14.01,2013-06-28 13:37:00,
2013-06-28 09:42:00,79.2,73.2,29.59,North,-999,-999.0,0.0,82,0.00,,---,0.01,VWS V14.01,2013-06-28 13:42:00,
2013-06-28 09:47:00,79.4,73.4,29.59,North,-999,-999.0,0.0,82,0.00,,---,0.01,VWS V14.01,2013-06-28 13:47:00,
2013-06-28 09:52:00,79.6,72.5,29.59,North,-999,-999.0,0.0,79,0.00,,---,0.01,VWS V14.01,2013-06-28 13:52:00,
2013-06-28 09:57:00,79.9,72.8,29.58,North,-999,-999.0,0.0,79,0.00,,---,0.01,VWS V14.01,2013-06-28 13:57:00,
2013-06-28 10:02:00,79.9,72.8,29.58,North,-999,-999.0,0.0,79,0.00,,---,0.01,VWS V14.01,2013-06-28 14:02:00,
2013-06-28 10:08:00,80.3,72.8,29.58,North,-999,-999.0,0.0,78,0.00,,---,0.01,VWS V14.01,2013-06-28 14:08:00,
2013-06-28 10:13:00,80.3,72.4,29.58,North,-999,-999.0,0.0,77,0.00,,---,0.01,VWS V14.01,2013-06-28 14:13:00,
2013-06-28 10:18:00,80.5,72.2,29.58,North,-999,-999.0,0.0,76,0.00,,---,0.01,VWS V14.01,2013-06-28 14:18:00,
2013-06-28 10:23:00,80.8,72.5,29.58,North,-999,-999.0,0.0,76,0.00,,---,0.01,VWS V14.01,2013-06-28 14:23:00,
2013-06-28 10:28:00,81.0,72.3,29.58,North,-999,-999.0,0.0,75,0.00,,---,0.01,VWS V14.01,2013-06-28 14:28:00,
2013-06-28 10:33:00,81.5,72.4,29.58,North,-999,-999.0,0.0,74,0.00,,---,0.01,VWS V14.01,2013-06-28 14:33:00,
2013-06-28 10:38:00,81.7,72.6,29.58,North,-999,-999.0,0.0,74,0.00,,---,0.01,VWS V14.01,2013-06-28 14:38:00,
2013-06-28 10:43:00,81.9,72.8,29.58,North,-999,-999.0,0.0,74,0.00,,---,0.01,VWS V14.01,2013-06-28 14:43:00,
2013-06-28 10:48:00,82.4,73.3,29.58,North,-999,-999.0,0.0,74,0.00,,---,0.01,VWS V14.01,2013-06-28 14:48:00,
2013-06-28 10:53:00,83.0,73.1,29.58,North,-999,-999.0,0.0,72,0.00,,---,0.01,VWS V14.01,2013-06-28 14:53:00,
2013-06-28 10:58:00,83.3,73.3,29.58,North,-999,-999.0,0.0,72,0.00,,---,0.01,VWS V14.01,2013-06-28 14:58:00,
2013-06-28 11:04:00,83.9,73.9,29.58,North,-999,-999.0,0.0,72,0.00,,---,0.01,VWS V14.01,2013-06-28 15:04:00,
2013-06-28 11:09:00,84.4,73.6,29.58,North,-999,-999.0,0.0,70,0.00,,---,0.01,VWS V14.01,2013-06-28 15:09:00,
2013-06-28 11:14:00,85.1,74.2,29.58,North,-999,-999.0,0.0,70,0.00,,---,0.01,VWS V14.01,2013-06-28 15:14:00,
2013-06-28 11:19:00,85.3,73.1,29.57,North,-999,-999.0,0.0,67,0.00,,---,0.01,VWS V14.01,2013-06-28 15:19:00,
2013-06-28 11:24:00,85.5,72.8,29.57,North,-999,-999.0,0.0,66,0.00,,---,0.01,VWS V14.01,2013-06-28 15:24:00,
2013-06-28 11:29:00,85.3,72.7,29.57,North,-999,-999.0,0.0,66,0.00,,---,0.01,VWS V14.01,2013-06-28 15:29:00,
2013-06-28 11:34:00,86.4,74.2,29.57,North,-999,-999.0,0.0,67,0.00,,---,0.01,VWS V14.01,2013-06-28 15:34:00,
2013-06-28 11:39:00,88.6,73.9,29.57,North,-999,-999.0,0.0,62,0.00,,---,0.01,VWS V14.01,2013-06-28 15:39:00,
2013-06-28 11:44:00,90.0,74.8,29.58,North,-999,-999.0,0.0,61,0.00,,---,0.01,VWS V14.01,2013-06-28 15:44:00,
2013-06-28 11:49:00,90.7,73.9,29.57,North,-999,-999.0,0.0,58,0.00,,---,0.01,VWS V14.01,2013-06-28 15:49:00,
2013-06-28 11:54:00,91.4,74.6,29.57,North,-999,-999.0,0.0,58,0.00,,---,0.01,VWS V14.01,2013-06-28 15:54:00,
2013-06-28 11:59:00,93.1,75.6,29.57,North,-999,-999.0,0.0,57,0.00,,---,0.01,VWS V14.01,2013-06-28 15:59:00,
2013-06-28 12:05:00,94.0,75.9,29.57,North,-999,-999.0,0.0,56,0.00,,---,0.01,VWS V14.01,2013-06-28 16:05:00,
2013-06-28 12:10:00,94.3,72.8,29.57,North,-999,-999.0,0.0,50,0.00,,---,0.01,VWS V14.01,2013-06-28 16:10:00,
2013-06-28 12:15:00,94.0,74.3,29.56,North,-999,-999.0,0.0,53,0.00,,---,0.01,VWS V14.01,2013-06-28 16:15:00,
2013-06-28 12:20:00,95.0,75.2,29.56,North,-999,-999.0,0.0,53,0.00,,---,0.01,VWS V14.01,2013-06-28 16:20:00,
2013-06-28 12:25:00,94.5,73.0,29.56,North,-999,-999.0,0.0,50,0.00,,---,0.01,VWS V14.01,2013-06-28 16:25:00,
2013-06-28 12:30:00,93.8,70.5,29.56,North,-999,-999.0,0.0,47,0.00,,---,0.01,VWS V14.01,2013-06-28 16:30:00,
2013-06-28 12:35:00,94.0,73.1,29.56,North,-999,-999.0,0.0,51,0.00,,---,0.01,VWS V14.01,2013-06-28 16:35:00,
2013-06-28 12:40:00,95.0,71.0,29.56,North,-999,-999.0,0.0,46,0.00,,---,0.01,VWS V14.01,2013-06-28 16:40:00,
2013-06-28 12:45:00,95.4,73.8,29.56,North,-999,-999.0,0.0,50,0.00,,---,0.01,VWS V14.01,2013-06-28 16:45:00,
2013-06-28 12:50:00,95.8,72.3,29.56,North,-999,-999.0,0.0,47,0.00,,---,0.01,VWS V14.01,2013-06-28 16:50:00,
2013-06-28 12:55:00,95.8,72.3,29.56,North,-999,-999.0,0.0,47,0.00,,---,0.01,VWS V14.01,2013-06-28 16:55:00,
2013-06-28 13:01:00,95.8,73.0,29.56,North,-999,-999.0,0.0,48,0.00,,---,0.01,VWS V14.01,2013-06-28 17:01:00,
2013-06-28 13:06:00,96.1,72.6,29.56,North,-999,-999.0,0.0,47,0.00,,---,0.01,VWS V14.01,2013-06-28 17:06:00,
2013-06-28 13:11:00,95.8,72.3,29.56,North,-999,-999.0,0.0,47,0.00,,---,0.01,VWS V14.01,2013-06-28 17:11:00,
2013-06-28 13:16:00,95.6,72.2,29.55,North,-999,-999.0,0.0,47,0.00,,---,0.01,VWS V14.01,2013-06-28 17:16:00,
2013-06-28 13:21:00,94.9,71.5,29.55,North,-999,-999.0,0.0,47,0.00,,---,0.01,VWS V14.01,2013-06-28 17:21:00,
2013-06-28 13:26:00,95.6,72.8,29.55,North,-999,-999.0,0.0,48,0.00,,---,0.01,VWS V14.01,2013-06-28 17:26:00,
2013-06-28 13:31:00,96.8,73.9,29.55,North,-999,-999.0,0.0,48,0.00,,---,0.01,VWS V14.01,2013-06-28 17:31:00,
2013-06-28 13:36:00,96.7,73.2,29.55,North,-999,-999.0,0.0,47,0.00,,---,0.01,VWS V14.01,2013-06-28 17:36:00,
2013-06-28 13:41:00,96.8,72.6,29.55,North,-999,-999.0,0.0,46,0.00,,---,0.01,VWS V14.01,2013-06-28 17:41:00,
2013-06-28 13:46:00,96.5,71.7,29.54,North,-999,-999.0,0.0,45,0.00,,---,0.01,VWS V14.01,2013-06-28 17:46:00,
2013-06-28 13:51:00,96.5,73.6,29.54,North,-999,-999.0,0.0,48,0.00,,---,0.01,VWS V14.01,2013-06-28 17:51:00,
2013-06-28 13:56:00,97.9,74.3,29.54,North,-999,-999.0,0.0,47,0.00,,---,0.01,VWS V14.01,2013-06-28 17:56:00,
2013-06-28 14:02:00,97.2,72.3,29.54,North,-999,-999.0,0.0,45,0.00,,---,0.01,VWS V14.01,2013-06-28 18:02:00,
2013-06-28 14:07:00,95.8,71.7,29.54,North,-999,-999.0,0.0,46,0.00,,---,0.01,VWS V14.01,2013-06-28 18:07:00,
2013-06-28 14:12:00,95.4,72.6,29.54,North,-999,-999.0,0.0,48,0.00,,---,0.01,VWS V14.01,2013-06-28 18:12:00,
2013-06-28 14:17:00,95.9,73.1,29.53,North,-999,-999.0,0.0,48,0.00,,---,0.01,VWS V14.01,2013-06-28 18:17:00,
2013-06-28 14:22:00,96.5,71.7,29.53,North,-999,-999.0,0.0,45,0.00,,---,0.01,VWS V14.01,2013-06-28 18:22:00,
2013-06-28 14:27:00,97.7,72.1,29.52,North,-999,-999.0,0.0,44,0.00,,---,0.01,VWS V14.01,2013-06-28 18:27:00,
2013-06-28 14:32:00,98.5,72.2,29.52,North,-999,-999.0,0.0,43,0.00,,---,0.01,VWS V14.01,2013-06-28 18:32:00,
2013-06-28 14:37:00,97.7,70.7,29.52,North,-999,-999.0,0.0,42,0.00,,---,0.01,VWS V14.01,2013-06-28 18:37:00,
2013-06-28 14:42:00,98.1,70.4,29.51,North,-999,-999.0,0.0,41,0.00,,---,0.01,VWS V14.01,2013-06-28 18:42:00,
2013-06-28 14:47:00,96.5,69.7,29.51,North,-999,-999.0,0.0,42,0.00,,---,0.01,VWS V14.01,2013-06-28 18:47:00,
2013-06-28 14:52:00,97.6,72.0,29.51,North,-999,-999.0,0.0,44,0.00,,---,0.01,VWS V14.01,2013-06-28 18:52:00,
2013-06-28 14:57:00,99.0,71.9,29.51,North,-999,-999.0,0.0,42,0.00,,---,0.01,VWS V14.01,2013-06-28 18:57:00,
2013-06-28 15:03:00,99.2,71.4,29.50,North,-999,-999.0,0.0,41,0.00,,---,0.01,VWS V14.01,2013-06-28 19:03:00,
2013-06-28 15:08:00,100.4,73.2,29.49,North,-999,-999.0,0.0,42,0.00,,---,0.01,VWS V14.01,2013-06-28 19:08:00,
2013-06-28 15:13:00,101.2,73.2,29.49,North,-999,-999.0,0.0,41,0.00,,---,0.01,VWS V14.01,2013-06-28 19:13:00,
2013-06-28 15:18:00,101.5,72.7,29.49,North,-999,-999.0,0.0,40,0.00,,---,0.01,VWS V14.01,2013-06-28 19:18:00,
2013-06-28 15:23:00,99.7,71.1,29.49,North,-999,-999.0,0.0,40,0.00,,---,0.01,VWS V14.01,2013-06-28 19:23:00,
2013-06-28 15:28:00,99.7,71.8,29.49,North,-999,-999.0,0.0,41,0.00,,---,0.01,VWS V14.01,2013-06-28 19:28:00,
2013-06-28 15:33:00,98.5,70.8,29.49,North,-999,-999.0,0.0,41,0.00,,---,0.01,VWS V14.01,2013-06-28 19:33:00,
2013-06-28 15:38:00,99.0,72.6,29.49,North,-999,-999.0,0.0,43,0.00,,---,0.01,VWS V14.01,2013-06-28 19:38:00,
2013-06-28 15:43:00,98.3,72.0,29.49,North,-999,-999.0,0.0,43,0.00,,---,0.01,VWS V14.01,2013-06-28 19:43:00,
2013-06-28 15:48:00,97.9,73.0,29.48,North,-999,-999.0,0.0,45,0.00,,---,0.01,VWS V14.01,2013-06-28 19:48:00,
2013-06-28 15:53:00,97.6,72.0,29.48,North,-999,-999.0,0.0,44,0.00,,---,0.01,VWS V14.01,2013-06-28 19:53:00,
2013-06-28 15:58:00,95.6,72.2,29.48,North,-999,-999.0,0.0,47,0.00,,---,0.01,VWS V14.01,2013-06-28 19:58:00,
2013-06-28 16:04:00,95.8,72.3,29.48,North,-999,-999.0,0.0,47,0.00,,---,0.01,VWS V14.01,2013-06-28 20:04:00,
2013-06-28 16:09:00,97.2,73.6,29.48,North,-999,-999.0,0.0,47,0.00,,---,0.01,VWS V14.01,2013-06-28 20:09:00,
2013-06-28 16:14:00,97.9,73.0,29.47,North,-999,-999.0,0.0,45,0.00,,---,0.01,VWS V14.01,2013-06-28 20:14:00,
2013-06-28 16:19:00,96.8,72.6,29.47,North,-999,-999.0,0.0,46,0.00,,---,0.01,VWS V14.01,2013-06-28 20:19:00,
2013-06-28 16:24:00,96.8,73.9,29.47,North,-999,-999.0,0.0,48,0.00,,---,0.01,VWS V14.01,2013-06-28 20:24:00,
2013-06-28 16:29:00,97.7,74.1,29.47,North,-999,-999.0,0.0,47,0.00,,---,0.01,VWS V14.01,2013-06-28 20:29:00,
2013-06-28 16:34:00,97.4,73.2,29.47,North,-999,-999.0,0.0,46,0.00,,---,0.01,VWS V14.01,2013-06-28 20:34:00,
2013-06-28 16:39:00,97.7,73.4,29.47,North,-999,-999.0,0.0,46,0.00,,---,0.01,VWS V14.01,2013-06-28 20:39:00,
2013-06-28 16:44:00,98.6,74.9,29.46,North,-999,-999.0,0.0,47,0.00,,---,0.01,VWS V14.01,2013-06-28 20:44:00,
2013-06-28 16:49:00,99.0,74.0,29.46,North,-999,-999.0,0.0,45,0.00,,---,0.01,VWS V14.01,2013-06-28 20:49:00,
2013-06-28 16:54:00,99.4,74.3,29.46,North,-999,-999.0,0.0,45,0.00,,---,0.01,VWS V14.01,2013-06-28 20:54:00,
2013-06-28 16:59:00,98.8,72.4,29.46,North,-999,-999.0,0.0,43,0.00,,---,0.01,VWS V14.01,2013-06-28 20:59:00,
2013-06-28 17:05:00,98.8,73.8,29.46,North,-999,-999.0,0.0,45,0.00,,---,0.01,VWS V14.01,2013-06-28 21:05:00,
2013-06-28 17:10:00,99.0,72.6,29.46,North,-999,-999.0,0.0,43,0.00,,---,0.01,VWS V14.01,2013-06-28 21:10:00,
2013-06-28 17:15:00,97.4,71.2,29.46,North,-999,-999.0,0.0,43,0.00,,---,0.01,VWS V14.01,2013-06-28 21:15:00,
2013-06-28 17:20:00,96.1,72.6,29.46,North,-999,-999.0,0.0,47,0.00,,---,0.01,VWS V14.01,2013-06-28 21:20:00,
2013-06-28 17:25:00,95.6,72.2,29.46,North,-999,-999.0,0.0,47,0.00,,---,0.01,VWS V14.01,2013-06-28 21:25:00,
2013-06-28 17:30:00,95.2,73.6,29.46,North,-999,-999.0,0.0,50,0.00,,---,0.01,VWS V14.01,2013-06-28 21:30:00,
2013-06-28 17:35:00,95.0,73.5,29.46,North,-999,-999.0,0.0,50,0.00,,---,0.01,VWS V14.01,2013-06-28 21:35:00,
2013-06-28 17:40:00,94.5,73.0,29.46,North,-999,-999.0,0.0,50,0.00,,---,0.01,VWS V14.01,2013-06-28 21:40:00,
2013-06-28 17:45:00,94.3,73.4,29.46,North,-999,-999.0,0.0,51,0.00,,---,0.01,VWS V14.01,2013-06-28 21:45:00,
2013-06-28 17:50:00,94.0,73.1,29.46,North,-999,-999.0,0.0,51,0.00,,---,0.01,VWS V14.01,2013-06-28 21:50:00,
2013-06-28 17:55:00,92.9,72.7,29.45,North,-999,-999.0,0.0,52,0.00,,---,0.01,VWS V14.01,2013-06-28 21:55:00,
2013-06-28 18:01:00,92.2,73.7,29.45,North,-999,-999.0,0.0,55,0.00,,---,0.01,VWS V14.01,2013-06-28 22:01:00,
2013-06-28 18:06:00,91.8,73.9,29.45,North,-999,-999.0,0.0,56,0.00,,---,0.01,VWS V14.01,2013-06-28 22:06:00,
2013-06-28 18:11:00,91.3,73.4,29.45,North,-999,-999.0,0.0,56,0.00,,---,0.01,VWS V14.01,2013-06-28 22:11:00,
2013-06-28 18:16:00,91.1,73.2,29.45,North,-999,-999.0,0.0,56,0.00,,---,0.01,VWS V14.01,2013-06-28 22:16:00,
2013-06-28 18:21:00,90.7,72.9,29.45,North,-999,-999.0,0.0,56,0.00,,---,0.01,VWS V14.01,2013-06-28 22:21:00,
2013-06-28 18:26:00,90.0,72.7,29.45,North,-999,-999.0,0.0,57,0.00,,---,0.01,VWS V14.01,2013-06-28 22:26:00,
2013-06-28 18:31:00,89.3,72.6,29.45,North,-999,-999.0,0.0,58,0.00,,---,0.01,VWS V14.01,2013-06-28 22:31:00,
2013-06-28 18:36:00,89.1,72.4,29.45,North,-999,-999.0,0.0,58,0.00,,---,0.01,VWS V14.01,2013-06-28 22:36:00,
2013-06-28 18:41:00,88.7,72.5,29.44,North,-999,-999.0,0.0,59,0.00,,---,0.01,VWS V14.01,2013-06-28 22:41:00,
2013-06-28 18:46:00,88.7,72.5,29.44,North,-999,-999.0,0.0,59,0.00,,---,0.01,VWS V14.01,2013-06-28 22:46:00,
2013-06-28 18:51:00,88.6,72.9,29.44,North,-999,-999.0,0.0,60,0.00,,---,0.01,VWS V14.01,2013-06-28 22:51:00,
2013-06-28 18:56:00,88.0,72.4,29.44,North,-999,-999.0,0.0,60,0.00,,---,0.01,VWS V14.01,2013-06-28 22:56:00,
2013-06-28 19:02:00,88.0,72.4,29.44,North,-999,-999.0,0.0,60,0.00,,---,0.01,VWS V14.01,2013-06-28 23:02:00,
2013-06-28 19:07:00,87.8,72.2,29.45,North,-999,-999.0,0.0,60,0.00,,---,0.01,VWS V14.01,2013-06-28 23:07:00,
2013-06-28 19:12:00,87.7,72.1,29.45,North,-999,-999.0,0.0,60,0.00,,---,0.01,VWS V14.01,2013-06-28 23:12:00,
2013-06-28 19:17:00,87.5,71.9,29.46,North,-999,-999.0,0.0,60,0.00,,---,0.01,VWS V14.01,2013-06-28 23:17:00,
2013-06-28 19:22:00,87.3,71.7,29.46,North,-999,-999.0,0.0,60,0.00,,---,0.01,VWS V14.01,2013-06-28 23:22:00,
2013-06-28 19:27:00,87.3,71.7,29.46,North,-999,-999.0,0.0,60,0.00,,---,0.01,VWS V14.01,2013-06-28 23:27:00,
2013-06-28 19:32:00,87.1,71.5,29.47,North,-999,-999.0,0.0,60,0.00,,---,0.01,VWS V14.01,2013-06-28 23:32:00,
2013-06-28 19:37:00,86.9,71.3,29.47,North,-999,-999.0,0.0,60,0.00,,---,0.01,VWS V14.01,2013-06-28 23:37:00,
2013-06-28 19:42:00,86.9,71.3,29.46,North,-999,-999.0,0.0,60,0.00,,---,0.01,VWS V14.01,2013-06-28 23:42:00,
2013-06-28 19:47:00,86.8,71.3,29.46,North,-999,-999.0,0.0,60,0.00,,---,0.01,VWS V14.01,2013-06-28 23:47:00,
2013-06-28 19:52:00,86.6,71.1,29.46,North,-999,-999.0,0.0,60,0.00,,---,0.01,VWS V14.01,2013-06-28 23:52:00,
2013-06-28 19:57:00,86.4,71.4,29.47,North,-999,-999.0,0.0,61,0.00,,---,0.01,VWS V14.01,2013-06-28 23:57:00,
2013-06-28 20:02:00,86.4,71.4,29.47,North,-999,-999.0,0.0,61,0.00,,---,0.01,VWS V14.01,2013-06-29 00:02:00,
2013-06-28 20:08:00,86.2,71.2,29.46,North,-999,-999.0,0.0,61,0.00,,---,0.01,VWS V14.01,2013-06-29 00:08:00,
2013-06-28 20:13:00,86.0,71.0,29.46,North,-999,-999.0,0.0,61,0.00,,---,0.01,VWS V14.01,2013-06-29 00:13:00,
2013-06-28 20:18:00,86.0,71.9,29.48,North,-999,-999.0,0.0,63,0.00,,---,0.01,VWS V14.01,2013-06-29 00:18:00,
2013-06-28 20:23:00,82.4,71.2,29.51,North,-999,-999.0,0.0,69,0.07,,---,0.08,VWS V14.01,2013-06-29 00:23:00,
2013-06-28 20:28:00,79.2,69.4,29.51,North,-999,-999.0,0.0,72,0.09,,---,0.10,VWS V14.01,2013-06-29 00:28:00,
2013-06-28 20:33:00,77.9,69.3,29.51,North,-999,-999.0,0.0,75,0.10,,---,0.11,VWS V14.01,2013-06-29 00:33:00,
2013-06-28 20:38:00,77.4,69.2,29.50,North,-999,-999.0,0.0,76,0.11,,---,0.12,VWS V14.01,2013-06-29 00:38:00,
2013-06-28 20:43:00,77.2,69.8,29.50,North,-999,-999.0,0.0,78,0.11,,---,0.12,VWS V14.01,2013-06-29 00:43:00,
2013-06-28 20:48:00,76.9,69.9,29.49,North,-999,-999.0,0.0,79,0.11,,---,0.12,VWS V14.01,2013-06-29 00:48:00,
2013-06-28 20:53:00,76.7,70.4,29.49,North,-999,-999.0,0.0,81,0.11,,---,0.12,VWS V14.01,2013-06-29 00:53:00,
2013-06-28 20:58:00,76.3,70.8,29.48,North,-999,-999.0,0.0,83,0.11,,---,0.12,VWS V14.01,2013-06-29 00:58:00,
2013-06-28 21:04:00,76.0,70.5,29.48,North,-999,-999.0,0.0,83,0.11,,---,0.12,VWS V14.01,2013-06-29 01:04:00,
2013-06-28 21:09:00,75.6,70.1,29.48,North,-999,-999.0,0.0,83,0.11,,---,0.12,VWS V14.01,2013-06-29 01:09:00,
2013-06-28 21:14:00,75.2,69.3,29.48,North,-999,-999.0,0.0,82,0.11,,---,0.12,VWS V14.01,2013-06-29 01:14:00,
2013-06-28 21:19:00,74.9,69.4,29.48,North,-999,-999.0,0.0,83,0.11,,---,0.12,VWS V14.01,2013-06-29 01:19:00,
2013-06-28 21:24:00,74.5,69.0,29.48,North,-999,-999.0,0.0,83,0.04,,---,0.12,VWS V14.01,2013-06-29 01:24:00,
2013-06-28 21:29:00,74.3,68.8,29.48,North,-999,-999.0,0.0,83,0.02,,---,0.12,VWS V14.01,2013-06-29 01:29:00,
2013-06-28 21:34:00,74.2,69.1,29.48,North,-999,-999.0,0.0,84,0.01,,---,0.12,VWS V14.01,2013-06-29 01:34:00,
2013-06-28 21:39:00,74.0,68.5,29.48,North,-999,-999.0,0.0,83,0.00,,---,0.12,VWS V14.01,2013-06-29 01:39:00,
2013-06-28 21:44:00,73.8,68.3,29.48,North,-999,-999.0,0.0,83,0.00,,---,0.12,VWS V14.01,2013-06-29 01:44:00,
2013-06-28 21:49:00,73.6,68.1,29.48,North,-999,-999.0,0.0,83,0.00,,---,0.12,VWS V14.01,2013-06-29 01:49:00,
2013-06-28 21:54:00,73.4,68.3,29.48,North,-999,-999.0,0.0,84,0.00,,---,0.12,VWS V14.01,2013-06-29 01:54:00,
2013-06-28 21:59:00,73.4,68.3,29.48,North,-999,-999.0,0.0,84,0.00,,---,0.12,VWS V14.01,2013-06-29 01:59:00,
2013-06-28 22:05:00,73.3,68.2,29.48,North,-999,-999.0,0.0,84,0.00,,---,0.12,VWS V14.01,2013-06-29 02:05:00,
2013-06-28 22:10:00,73.3,68.2,29.48,North,-999,-999.0,0.0,84,0.00,,---,0.12,VWS V14.01,2013-06-29 02:10:00,
2013-06-28 22:15:00,73.1,68.3,29.49,North,-999,-999.0,0.0,85,0.00,,---,0.12,VWS V14.01,2013-06-29 02:15:00,
2013-06-28 22:20:00,72.9,68.1,29.48,North,-999,-999.0,0.0,85,0.00,,---,0.12,VWS V14.01,2013-06-29 02:20:00,
2013-06-28 22:25:00,72.9,67.8,29.48,North,-999,-999.0,0.0,84,0.00,,---,0.12,VWS V14.01,2013-06-29 02:25:00,
2013-06-28 22:30:00,72.7,67.6,29.48,North,-999,-999.0,0.0,84,0.00,,---,0.12,VWS V14.01,2013-06-29 02:30:00,
2013-06-28 22:35:00,72.7,67.6,29.49,North,-999,-999.0,0.0,84,0.00,,---,0.12,VWS V14.01,2013-06-29 02:35:00,
2013-06-28 22:40:00,72.7,67.6,29.49,North,-999,-999.0,0.0,84,0.00,,---,0.12,VWS V14.01,2013-06-29 02:40:00,
2013-06-28 22:45:00,72.7,67.6,29.49,North,-999,-999.0,0.0,84,0.00,,---,0.12,VWS V14.01,2013-06-29 02:45:00,
2013-06-28 22:50:00,72.7,67.6,29.49,North,-999,-999.0,0.0,84,0.00,,---,0.12,VWS V14.01,2013-06-29 02:50:00,
2013-06-28 22:55:00,72.7,67.6,29.49,North,-999,-999.0,0.0,84,0.00,,---,0.12,VWS V14.01,2013-06-29 02:55:00,
2013-06-28 23:00:00,72.5,67.4,29.49,North,-999,-999.0,0.0,84,0.00,,---,0.12,VWS V14.01,2013-06-29 03:00:00,
2013-06-28 23:06:00,72.5,67.4,29.50,North,-999,-999.0,0.0,84,0.00,,---,0.12,VWS V14.01,2013-06-29 03:06:00,
2013-06-28 23:11:00,72.5,67.4,29.50,North,-999,-999.0,0.0,84,0.00,,---,0.12,VWS V14.01,2013-06-29 03:11:00,
2013-06-28 23:16:00,72.5,67.4,29.50,North,-999,-999.0,0.0,84,0.00,,---,0.12,VWS V14.01,2013-06-29 03:16:00,
2013-06-28 23:21:00,72.7,67.6,29.50,North,-999,-999.0,0.0,84,0.00,,---,0.12,VWS V14.01,2013-06-29 03:21:00,
2013-06-28 23:26:00,72.7,67.6,29.50,North,-999,-999.0,0.0,84,0.00,,---,0.12,VWS V14.01,2013-06-29 03:26:00,
2013-06-28 23:31:00,72.9,67.8,29.50,North,-999,-999.0,0.0,84,0.00,,---,0.12,VWS V14.01,2013-06-29 03:31:00,
2013-06-28 23:36:00,72.9,68.1,29.50,North,-999,-999.0,0.0,85,0.00,,---,0.12,VWS V14.01,2013-06-29 03:36:00,
2013-06-28 23:41:00,72.9,68.1,29.50,North,-999,-999.0,0.0,85,0.00,,---,0.12,VWS V14.01,2013-06-29 03:41:00,
2013-06-28 23:46:00,72.7,67.6,29.50,North,-999,-999.0,0.0,84,0.00,,---,0.12,VWS V14.01,2013-06-29 03:46:00,
2013-06-28 23:51:00,72.7,67.6,29.50,North,-999,-999.0,0.0,84,0.00,,---,0.12,VWS V14.01,2013-06-29 03:51:00,
2013-06-28 23:56:00,72.7,67.6,29.51,North,-999,-999.0,0.0,84,0.00,,---,0.12,VWS V14.01,2013-06-29 03:56:00,